createdAt,value
2018-02-17T00:00:52.378Z,40.47
2018-02-17T00:03:22.030Z,39.13
2018-02-17T00:05:51.763Z,39.57
2018-02-17T00:08:22.944Z,37.60
2018-02-17T00:10:52.543Z,46.47
2018-02-17T00:13:22.190Z,40.07
2018-02-17T00:15:51.803Z,53.63
2018-02-17T00:18:21.831Z,51.47
2018-02-17T00:20:51.713Z,48.80
2018-02-17T00:23:22.231Z,61.27
2018-02-17T00:25:51.826Z,53.70
2018-02-17T00:28:30.124Z,50.77
2018-02-17T00:31:00.098Z,52.77
2018-02-17T00:33:36.459Z,50.67
2018-02-17T00:36:06.077Z,50.63
2018-02-17T00:38:35.914Z,44.73
2018-02-17T00:41:05.487Z,44.17
2018-02-17T00:43:36.071Z,48.50
2018-02-17T00:46:05.681Z,40.50
2018-02-17T00:48:35.307Z,37.97
2018-02-17T00:51:04.880Z,39.50
2018-02-17T00:53:38.260Z,42.87
2018-02-17T00:56:07.817Z,44.47
2018-02-17T00:58:37.431Z,35.87
2018-02-17T01:01:20.738Z,38.53
2018-02-17T01:03:50.724Z,34.03
2018-02-17T01:06:20.357Z,34.73
2018-02-17T01:08:50.036Z,36.33
2018-02-17T01:11:27.072Z,30.63
2018-02-17T01:13:56.656Z,33.93
2018-02-17T01:16:27.701Z,34.07
2018-02-17T01:18:57.365Z,34.83
2018-02-17T01:21:27.815Z,31.73
2018-02-17T01:23:57.471Z,31.37
2018-02-17T01:26:27.416Z,28.97
2018-02-17T01:28:57.033Z,29.37
2018-02-17T01:31:26.848Z,28.80
2018-02-17T01:33:56.439Z,30.37
2018-02-17T01:36:25.987Z,31.70
2018-02-17T01:38:55.511Z,34.50
2018-02-17T01:41:25.124Z,33.90
2018-02-17T01:43:54.818Z,34.87
2018-02-17T01:46:24.484Z,39.70
2018-02-17T01:48:54.131Z,42.37
2018-02-17T01:51:27.628Z,36.97
2018-02-17T01:53:57.296Z,49.37
2018-02-17T01:56:27.479Z,53.50
2018-02-17T01:58:57.841Z,50.50
2018-02-17T02:01:36.041Z,51.47
2018-02-17T02:04:09.406Z,52.33
2018-02-17T02:06:38.938Z,55.90
2018-02-17T02:09:08.499Z,68.67
2018-02-17T02:11:39.058Z,61.17
2018-02-17T02:14:08.679Z,63.60
2018-02-17T02:16:38.488Z,58.63
2018-02-17T02:19:08.099Z,59.27
2018-02-17T02:21:37.718Z,55.13
2018-02-17T02:24:08.393Z,58.23
2018-02-17T02:26:38.567Z,59.67
2018-02-17T02:29:08.235Z,54.03
2018-02-17T02:31:51.801Z,58.60
2018-02-17T02:34:21.522Z,53.83
2018-02-17T02:36:51.177Z,56.33
2018-02-17T02:39:21.139Z,45.50
2018-02-17T02:41:58.349Z,47.53
2018-02-17T02:44:27.934Z,46.90
2018-02-17T02:47:05.295Z,43.67
2018-02-17T02:49:34.992Z,53.70
2018-02-17T02:52:17.321Z,44.97
2018-02-17T02:55:01.577Z,41.83
2018-02-17T02:57:31.337Z,40.73
2018-02-17T03:00:00.903Z,40.90
2018-02-17T03:02:34.387Z,43.03
2018-02-17T03:05:05.132Z,51.00
2018-02-17T03:07:34.692Z,57.47
2018-02-17T03:10:04.325Z,50.97
2018-02-17T03:12:34.055Z,51.27
2018-02-17T03:15:03.905Z,61.80
2018-02-17T03:17:33.831Z,54.03
2018-02-17T03:20:04.218Z,51.97
2018-02-17T03:22:34.725Z,54.87
2018-02-17T03:25:04.420Z,55.80
2018-02-17T03:27:34.662Z,53.33
2018-02-17T03:30:04.519Z,47.13
2018-02-17T03:32:34.147Z,47.60
2018-02-17T03:35:04.084Z,50.80
2018-02-17T03:37:34.028Z,51.70
2018-02-17T03:40:03.640Z,51.13
2018-02-17T03:42:33.271Z,47.90
2018-02-17T03:45:15.284Z,50.80
2018-02-17T03:47:45.331Z,44.43
2018-02-17T03:50:15.147Z,42.10
2018-02-17T03:52:44.814Z,43.63
2018-02-17T03:55:22.371Z,45.10
2018-02-17T03:57:52.393Z,38.40
2018-02-17T04:00:22.057Z,44.87
2018-02-17T04:02:51.651Z,39.60
2018-02-17T04:05:21.311Z,36.00
2018-02-17T04:07:52.405Z,35.90
2018-02-17T04:10:22.003Z,38.47
2018-02-17T04:12:51.694Z,44.60
2018-02-17T04:15:35.471Z,38.33
2018-02-17T04:18:05.143Z,37.33
2018-02-17T04:20:34.748Z,40.20
2018-02-17T04:23:04.277Z,36.90
2018-02-17T04:25:33.843Z,42.70
2018-02-17T04:28:03.920Z,39.43
2018-02-17T04:30:41.331Z,42.87
2018-02-17T04:33:10.860Z,32.50
2018-02-17T04:35:40.446Z,41.00
2018-02-17T04:38:10.876Z,38.60
2018-02-17T04:40:41.337Z,36.90
2018-02-17T04:43:11.879Z,35.53
2018-02-17T04:45:45.036Z,36.50
2018-02-17T04:48:16.484Z,28.80
2018-02-17T04:50:48.051Z,31.50
2018-02-17T04:53:45.667Z,29.33
2018-02-17T04:56:17.259Z,29.50
2018-02-17T04:59:10.104Z,28.30
2018-02-17T05:01:43.473Z,34.50
2018-02-17T05:04:13.103Z,35.67
2018-02-17T05:06:53.515Z,36.17
2018-02-17T05:09:23.110Z,37.77
2018-02-17T05:11:52.735Z,35.57
2018-02-17T05:14:38.317Z,41.47
2018-02-17T05:17:27.476Z,37.27
2018-02-17T05:20:04.720Z,37.53
2018-02-17T05:22:34.361Z,32.77
2018-02-17T05:25:19.774Z,37.13
2018-02-17T05:27:50.903Z,37.30
2018-02-17T05:30:20.588Z,31.80
2018-02-17T05:32:52.794Z,37.73
2018-02-17T05:35:28.100Z,34.43
2018-02-17T05:37:57.739Z,36.67
2018-02-17T05:40:43.959Z,37.77
2018-02-17T05:43:13.594Z,34.50
2018-02-17T05:45:58.034Z,39.40
2018-02-17T05:48:31.211Z,30.80
2018-02-17T05:51:00.843Z,41.47
2018-02-17T05:53:30.361Z,37.40
2018-02-17T05:56:13.214Z,39.03
2018-02-17T05:58:42.718Z,34.33
2018-02-17T06:01:12.214Z,42.20
2018-02-17T06:03:41.785Z,55.23
2018-02-17T06:06:11.370Z,30.00
2018-02-17T06:08:41.183Z,32.20
2018-02-17T06:11:10.754Z,26.77
2018-02-17T06:13:40.403Z,29.33
2018-02-17T06:16:09.898Z,30.83
2018-02-17T06:18:39.434Z,27.97
2018-02-17T06:21:09.022Z,31.07
2018-02-17T06:23:38.564Z,21.60
2018-02-17T06:26:08.907Z,24.17
2018-02-17T06:28:38.457Z,24.20
2018-02-17T06:31:07.966Z,23.70
2018-02-17T06:33:37.530Z,27.97
2018-02-17T06:36:07.019Z,26.60
2018-02-17T06:38:36.559Z,30.53
2018-02-17T06:41:06.049Z,32.17
2018-02-17T06:43:35.582Z,26.60
2018-02-17T06:46:05.130Z,23.20
2018-02-17T06:48:37.330Z,25.87
2018-02-17T06:51:06.877Z,30.40
2018-02-17T06:53:36.442Z,35.93
2018-02-17T06:56:06.005Z,23.70
2018-02-17T06:58:42.335Z,29.63
2018-02-17T07:01:19.076Z,26.67
2018-02-17T07:03:48.627Z,25.10
2018-02-17T07:06:18.315Z,31.30
2018-02-17T07:08:48.326Z,25.60
2018-02-17T07:11:17.883Z,40.33
2018-02-17T07:13:59.980Z,31.97
2018-02-17T07:16:29.544Z,32.00
2018-02-17T07:18:59.111Z,30.63
2018-02-17T07:21:36.391Z,23.00
2018-02-17T07:24:06.146Z,25.33
2018-02-17T07:26:35.663Z,20.60
2018-02-17T07:29:05.709Z,18.43
2018-02-17T07:31:35.255Z,21.37
2018-02-17T07:34:04.801Z,26.03
2018-02-17T07:36:40.449Z,21.13
2018-02-17T07:39:09.992Z,25.43
2018-02-17T07:41:39.490Z,25.20
2018-02-17T07:44:22.922Z,25.40
2018-02-17T07:46:52.462Z,23.77
2018-02-17T07:49:22.040Z,25.97
2018-02-17T07:52:10.938Z,25.93
2018-02-17T07:54:40.469Z,25.23
2018-02-17T07:57:09.996Z,28.10
2018-02-17T07:59:39.550Z,25.30
2018-02-17T08:02:16.954Z,26.60
2018-02-17T08:04:46.473Z,28.67
2018-02-17T08:07:16.049Z,24.90
2018-02-17T08:09:45.634Z,24.50
2018-02-17T08:12:15.190Z,26.20
2018-02-17T08:14:53.299Z,28.73
2018-02-17T08:17:22.831Z,24.07
2018-02-17T08:19:52.400Z,27.23
2018-02-17T08:22:22.030Z,24.90
2018-02-17T08:25:04.569Z,26.17
2018-02-17T08:27:34.061Z,28.67
2018-02-17T08:30:16.263Z,28.70
2018-02-17T08:32:45.823Z,21.90
2018-02-17T08:35:17.062Z,36.13
2018-02-17T08:37:46.619Z,34.00
2018-02-17T08:40:16.211Z,31.97
2018-02-17T08:42:45.887Z,29.03
2018-02-17T08:45:15.393Z,36.93
2018-02-17T08:47:44.955Z,29.27
2018-02-17T08:50:27.041Z,31.70
2018-02-17T08:53:08.607Z,29.03
2018-02-17T08:55:38.140Z,32.40
2018-02-17T08:58:07.745Z,29.00
2018-02-17T09:00:38.182Z,24.67
2018-02-17T09:03:07.984Z,31.23
2018-02-17T09:05:49.549Z,26.27
2018-02-17T09:08:26.422Z,28.07
2018-02-17T09:10:55.976Z,24.20
2018-02-17T09:13:25.564Z,23.50
2018-02-17T09:15:55.133Z,27.00
2018-02-17T09:18:24.689Z,27.77
2018-02-17T09:20:54.256Z,26.93
2018-02-17T09:23:26.053Z,24.67
2018-02-17T09:25:57.099Z,26.70
2018-02-17T09:28:26.645Z,28.53
2018-02-17T09:30:56.286Z,31.77
2018-02-17T09:33:26.026Z,33.63
2018-02-17T09:35:55.644Z,38.17
2018-02-17T09:38:25.140Z,40.13
2018-02-17T09:40:54.715Z,44.73
2018-02-17T09:43:31.990Z,34.30
2018-02-17T09:46:02.499Z,35.20
2018-02-17T09:48:32.272Z,43.73
2018-02-17T09:51:01.960Z,42.60
2018-02-17T09:53:31.595Z,39.13
2018-02-17T09:56:01.372Z,40.00
2018-02-17T09:58:31.870Z,46.30
2018-02-17T10:01:01.370Z,47.77
2018-02-17T10:03:30.860Z,48.10
2018-02-17T10:06:00.440Z,50.13
2018-02-17T10:08:30.075Z,46.00
2018-02-17T10:10:59.699Z,47.63
2018-02-17T10:13:29.259Z,49.87
2018-02-17T10:15:58.799Z,51.27
2018-02-17T10:18:28.375Z,53.93
2018-02-17T10:20:58.018Z,49.80
2018-02-17T10:23:28.354Z,42.80
2018-02-17T10:25:57.914Z,49.33
2018-02-17T10:28:27.484Z,47.97
2018-02-17T10:30:58.518Z,42.37
2018-02-17T10:33:41.408Z,47.67
2018-02-17T10:36:11.561Z,51.23
2018-02-17T10:38:41.107Z,50.17
2018-02-17T10:41:10.666Z,41.73
2018-02-17T10:43:40.207Z,53.57
2018-02-17T10:46:09.760Z,52.40
2018-02-17T10:48:39.400Z,43.30
2018-02-17T10:51:08.935Z,54.40
2018-02-17T10:53:44.630Z,75.77
2018-02-17T10:56:14.150Z,54.50
2018-02-17T10:58:43.724Z,58.77
2018-02-17T11:01:13.402Z,63.43
2018-02-17T11:03:42.915Z,47.47
2018-02-17T11:06:12.495Z,42.73
2018-02-17T11:08:42.063Z,54.43
2018-02-17T11:11:11.599Z,53.67
2018-02-17T11:13:41.177Z,48.83
2018-02-17T11:16:10.735Z,53.00
2018-02-17T11:18:40.393Z,49.73
2018-02-17T11:21:09.949Z,57.70
2018-02-17T11:23:39.526Z,56.13
2018-02-17T11:26:09.134Z,47.60
2018-02-17T11:28:38.626Z,48.60
2018-02-17T11:31:08.207Z,50.73
2018-02-17T11:33:37.731Z,48.87
2018-02-17T11:36:07.221Z,58.17
2018-02-17T11:38:36.773Z,49.13
2018-02-17T11:41:06.342Z,53.97
2018-02-17T11:43:35.850Z,50.60
2018-02-17T11:46:05.355Z,66.87
2018-02-17T11:48:34.956Z,59.50
2018-02-17T11:51:04.561Z,55.03
2018-02-17T11:53:40.171Z,52.13
2018-02-17T11:56:12.086Z,52.63
2018-02-17T11:58:41.590Z,50.73
2018-02-17T12:01:11.118Z,50.80
2018-02-17T12:03:40.673Z,48.27
2018-02-17T12:06:10.466Z,52.57
2018-02-17T12:08:54.085Z,45.87
2018-02-17T12:11:23.666Z,47.40
2018-02-17T12:13:53.774Z,53.40
2018-02-17T12:16:23.333Z,49.57
2018-02-17T12:18:52.915Z,54.57
2018-02-17T12:21:35.864Z,49.60
2018-02-17T12:24:05.388Z,57.63
2018-02-17T12:26:49.203Z,49.60
2018-02-17T12:29:18.906Z,54.47
2018-02-17T12:31:49.166Z,52.77
2018-02-17T12:34:20.243Z,52.50
2018-02-17T12:36:50.077Z,52.87
2018-02-17T12:39:19.864Z,52.13
2018-02-17T12:42:03.559Z,53.97
2018-02-17T12:44:36.322Z,49.80
2018-02-17T12:47:12.193Z,46.10
2018-02-17T12:49:42.755Z,43.53
2018-02-17T12:52:14.156Z,40.17
2018-02-17T12:54:43.914Z,43.37
2018-02-17T12:57:13.770Z,46.53
2018-02-17T12:59:43.346Z,57.67
2018-02-17T13:02:12.904Z,53.90
2018-02-17T13:04:42.422Z,55.53
2018-02-17T13:07:12.915Z,53.90
2018-02-17T13:09:42.515Z,48.20
2018-02-17T13:12:19.509Z,53.07
2018-02-17T13:14:49.151Z,46.50
2018-02-17T13:17:18.690Z,50.70
2018-02-17T13:19:48.251Z,55.90
2018-02-17T13:22:18.590Z,55.27
2018-02-17T13:24:48.223Z,59.03
2018-02-17T13:27:17.850Z,56.07
2018-02-17T13:29:48.732Z,58.77
2018-02-17T13:32:18.274Z,59.60
2018-02-17T13:34:47.941Z,61.53
2018-02-17T13:37:25.021Z,66.50
2018-02-17T13:39:54.835Z,56.63
2018-02-17T13:42:33.852Z,63.10
2018-02-17T13:45:04.480Z,60.40
2018-02-17T13:47:33.996Z,64.40
2018-02-17T13:50:03.576Z,58.73
2018-02-17T13:52:40.557Z,55.00
2018-02-17T13:55:10.368Z,68.20
2018-02-17T13:57:40.016Z,54.43
2018-02-17T14:00:09.773Z,57.97
2018-02-17T14:02:39.422Z,51.27
2018-02-17T14:05:08.995Z,65.27
2018-02-17T14:07:38.583Z,55.87
2018-02-17T14:10:08.190Z,47.53
2018-02-17T14:12:37.702Z,47.63
2018-02-17T14:15:07.668Z,53.50
2018-02-17T14:17:37.614Z,51.50
2018-02-17T14:20:09.045Z,51.40
2018-02-17T14:22:38.634Z,54.03
2018-02-17T14:25:20.634Z,50.83
2018-02-17T14:27:50.204Z,53.03
2018-02-17T14:30:32.794Z,51.10
2018-02-17T14:33:02.367Z,45.27
2018-02-17T14:35:44.636Z,44.40
2018-02-17T14:38:14.216Z,53.40
2018-02-17T14:40:57.402Z,51.27
2018-02-17T14:43:34.471Z,44.10
2018-02-17T14:46:04.299Z,47.40
2018-02-17T14:48:33.986Z,64.87
2018-02-17T14:51:03.578Z,44.90
2018-02-17T14:53:46.804Z,46.47
2018-02-17T14:56:16.403Z,47.27
2018-02-17T14:58:46.093Z,53.50
2018-02-17T15:01:21.644Z,55.40
2018-02-17T15:03:57.476Z,47.53
2018-02-17T15:06:27.066Z,50.90
2018-02-17T15:09:02.643Z,44.27
2018-02-17T15:11:32.370Z,44.03
2018-02-17T15:14:02.944Z,42.70
2018-02-17T15:16:32.480Z,38.77
2018-02-17T15:19:02.271Z,34.77
2018-02-17T15:21:31.837Z,41.93
2018-02-17T15:24:01.401Z,43.57
2018-02-17T15:26:31.197Z,44.23
2018-02-17T15:29:00.766Z,39.30
2018-02-17T15:31:30.358Z,48.93
2018-02-17T15:33:59.970Z,48.07
2018-02-17T15:36:29.524Z,50.33
2018-02-17T15:38:59.480Z,45.53
2018-02-17T15:41:29.769Z,39.03
2018-02-17T15:43:59.569Z,38.73
2018-02-17T15:46:30.033Z,43.43
2018-02-17T15:48:59.541Z,46.60
2018-02-17T15:51:29.095Z,50.83
2018-02-17T15:53:58.697Z,46.47
2018-02-17T15:56:35.483Z,53.03
2018-02-17T15:59:05.040Z,45.97
2018-02-17T16:01:34.527Z,47.57
2018-02-17T16:04:04.099Z,41.83
2018-02-17T16:06:33.681Z,43.97
2018-02-17T16:09:11.817Z,43.57
2018-02-17T16:11:41.456Z,27.47
2018-02-17T16:14:11.154Z,28.43
2018-02-17T16:16:46.894Z,31.90
2018-02-17T16:19:16.717Z,33.67
2018-02-17T16:22:01.714Z,27.13
2018-02-17T16:24:31.270Z,34.57
2018-02-17T16:27:13.930Z,24.87
2018-02-17T16:29:43.597Z,21.30
2018-02-17T16:32:13.088Z,31.70
2018-02-17T16:34:42.622Z,28.40
2018-02-17T16:37:13.930Z,19.93
2018-02-17T16:39:43.490Z,17.77
2018-02-17T16:42:13.042Z,19.17
2018-02-17T16:44:42.590Z,15.10
2018-02-17T16:47:12.245Z,15.13
2018-02-17T16:49:41.770Z,16.20
2018-02-17T16:52:11.340Z,18.17
2018-02-17T16:54:41.082Z,30.83
2018-02-17T16:57:10.795Z,21.97
2018-02-17T16:59:48.015Z,13.67
2018-02-17T17:02:17.566Z,20.43
2018-02-17T17:04:47.099Z,14.80
2018-02-17T17:07:16.706Z,20.80
2018-02-17T17:09:46.358Z,19.17
2018-02-17T17:12:15.899Z,14.27
2018-02-17T17:14:45.456Z,13.53
2018-02-17T17:17:15.000Z,9.80
2018-02-17T17:19:44.573Z,12.10
2018-02-17T17:22:15.998Z,14.33
2018-02-17T17:24:46.977Z,11.10
2018-02-17T17:27:17.390Z,10.00
2018-02-17T17:29:47.018Z,11.10
2018-02-17T17:32:18.865Z,10.03
2018-02-17T17:34:48.396Z,10.37
2018-02-17T17:37:17.902Z,8.23
2018-02-17T17:39:48.894Z,11.00
2018-02-17T17:42:18.978Z,7.83
2018-02-17T17:44:55.764Z,7.13
2018-02-17T17:47:25.334Z,6.97
2018-02-17T17:49:55.018Z,8.20
2018-02-17T17:52:24.574Z,6.90
2018-02-17T17:54:54.155Z,3.53
2018-02-17T17:57:23.825Z,8.50
2018-02-17T17:59:53.332Z,7.17
2018-02-17T18:02:22.883Z,3.80
2018-02-17T18:04:52.434Z,3.60
2018-02-17T18:07:21.982Z,6.00
2018-02-17T18:09:51.500Z,7.13
2018-02-17T18:12:21.886Z,13.80
2018-02-17T18:14:51.468Z,7.17
2018-02-17T18:17:21.015Z,4.00
2018-02-17T18:19:50.614Z,4.80
2018-02-17T18:22:21.071Z,4.83
2018-02-17T18:25:02.771Z,5.93
2018-02-17T18:27:32.315Z,7.60
2018-02-17T18:30:14.089Z,8.70
2018-02-17T18:32:43.634Z,7.00
2018-02-17T18:35:13.205Z,6.10
2018-02-17T18:38:02.976Z,4.80
2018-02-17T18:40:41.151Z,11.63
2018-02-17T18:43:10.707Z,5.93
2018-02-17T18:45:40.289Z,4.53
2018-02-17T18:48:13.650Z,8.57
2018-02-17T18:50:50.217Z,5.77
2018-02-17T18:53:32.121Z,5.00
2018-02-17T18:56:01.656Z,3.97
2018-02-17T18:58:46.244Z,4.73
2018-02-17T19:01:16.407Z,3.53
2018-02-17T19:03:52.123Z,4.50
2018-02-17T19:06:21.805Z,6.30
2018-02-17T19:08:57.431Z,4.93
2018-02-17T19:11:27.088Z,9.70
2018-02-17T19:13:56.753Z,6.03
2018-02-17T19:16:26.459Z,7.73
2018-02-17T19:18:57.033Z,6.67
2018-02-17T19:21:41.973Z,7.20
2018-02-17T19:24:12.658Z,5.97
2018-02-17T19:26:42.619Z,8.53
2018-02-17T19:29:19.892Z,14.93
2018-02-17T19:37:06.792Z,9.70
2018-02-17T21:30:29.371Z,21.13
2018-02-17T22:09:31.452Z,21.73
2018-02-17T22:23:18.423Z,11.90
2018-02-17T22:35:40.628Z,15.83
2018-02-17T22:38:11.114Z,17.57
2018-02-17T23:03:58.173Z,12.33
2018-02-17T23:09:20.505Z,14.77
2018-02-17T23:11:50.582Z,9.90
2018-02-17T23:14:20.242Z,5.70
2018-02-17T23:16:50.913Z,12.00
2018-02-17T23:19:20.564Z,4.97
2018-02-17T23:21:50.197Z,6.73
2018-02-17T23:24:19.874Z,6.90
2018-02-17T23:26:49.846Z,6.13
2018-02-17T23:29:24.697Z,11.43
2018-02-17T23:31:54.485Z,5.67
2018-02-17T23:34:24.382Z,17.87
2018-02-17T23:36:53.940Z,7.03
2018-02-17T23:39:23.546Z,5.87
2018-02-17T23:41:53.087Z,4.17
2018-02-17T23:44:22.610Z,5.00
2018-02-17T23:46:59.996Z,6.33
2018-02-17T23:49:36.520Z,4.23
2018-02-17T23:52:06.083Z,7.67
2018-02-17T23:54:37.989Z,3.27
2018-02-17T23:57:11.232Z,7.03
2018-02-17T23:59:40.850Z,7.93
